sensor_id;sensor_type;location;lat;lon;timestamp;P1;durP1;ratioP1;P2;durP2;ratioP2
65244;SDS011;51846;48.692;2.382;2022-10-31T17:52:18;13.52;;;6.45;;
65244;SDS011;51846;48.692;2.382;2022-10-31T17:54:44;13.38;;;7.10;;
65244;SDS011;51846;48.692;2.382;2022-10-31T17:57:09;18.50;;;7.13;;
65244;SDS011;51846;48.692;2.382;2022-10-31T17:59:35;16.40;;;7.18;;
65244;SDS011;51846;48.692;2.382;2022-10-31T18:02:00;13.75;;;6.75;;
65244;SDS011;51846;48.692;2.382;2022-10-31T18:04:26;19.92;;;7.90;;
65244;SDS011;51846;48.692;2.382;2022-10-31T18:06:52;16.30;;;7.22;;
65244;SDS011;51846;48.692;2.382;2022-10-31T18:09:18;16.75;;;7.47;;
65244;SDS011;51846;48.692;2.382;2022-10-31T18:11:43;19.63;;;7.28;;
65244;SDS011;51846;48.692;2.382;2022-10-31T18:14:09;16.92;;;6.75;;
65244;SDS011;51846;48.692;2.382;2022-10-31T18:16:35;19.63;;;7.80;;
65244;SDS011;51846;48.692;2.382;2022-10-31T18:19:01;19.25;;;7.15;;
65244;SDS011;51846;48.692;2.382;2022-10-31T18:21:27;19.40;;;7.15;;
65244;SDS011;51846;48.692;2.382;2022-10-31T18:23:53;17.23;;;7.05;;
65244;SDS011;51846;48.692;2.382;2022-10-31T18:26:20;16.75;;;6.75;;
65244;SDS011;51846;48.692;2.382;2022-10-31T18:28:46;15.45;;;6.82;;
65244;SDS011;51846;48.692;2.382;2022-10-31T18:31:11;16.75;;;6.38;;
65244;SDS011;51846;48.692;2.382;2022-10-31T18:33:36;16.02;;;6.88;;
65244;SDS011;51846;48.692;2.382;2022-10-31T18:36:05;17.65;;;6.53;;
65244;SDS011;51846;48.692;2.382;2022-10-31T18:38:31;17.27;;;5.60;;
65244;SDS011;51846;48.692;2.382;2022-10-31T18:40:57;16.92;;;6.43;;
65244;SDS011;51846;48.692;2.382;2022-10-31T18:43:22;16.33;;;6.57;;
65244;SDS011;51846;48.692;2.382;2022-10-31T18:45:48;14.07;;;5.78;;
65244;SDS011;51846;48.692;2.382;2022-10-31T18:48:14;11.68;;;6.15;;
65244;SDS011;51846;48.692;2.382;2022-10-31T18:50:40;13.25;;;6.00;;
65244;SDS011;51846;48.692;2.382;2022-10-31T18:53:06;12.55;;;5.22;;
65244;SDS011;51846;48.692;2.382;2022-10-31T18:55:31;14.35;;;5.07;;
65244;SDS011;51846;48.692;2.382;2022-10-31T18:57:56;11.98;;;5.30;;
65244;SDS011;51846;48.692;2.382;2022-10-31T19:00:22;12.27;;;4.90;;
65244;SDS011;51846;48.692;2.382;2022-10-31T19:02:47;10.25;;;5.22;;
65244;SDS011;51846;48.692;2.382;2022-10-31T19:05:13;13.57;;;4.57;;
65244;SDS011;51846;48.692;2.382;2022-10-31T19:07:38;9.30;;;4.90;;
65244;SDS011;51846;48.692;2.382;2022-10-31T19:10:03;9.57;;;4.60;;
65244;SDS011;51846;48.692;2.382;2022-10-31T19:12:30;11.35;;;5.10;;
65244;SDS011;51846;48.692;2.382;2022-10-31T19:14:56;10.00;;;4.43;;
65244;SDS011;51846;48.692;2.382;2022-10-31T19:17:25;9.88;;;4.63;;
65244;SDS011;51846;48.692;2.382;2022-10-31T19:19:50;11.20;;;4.90;;
65244;SDS011;51846;48.692;2.382;2022-10-31T19:22:16;12.05;;;4.72;;
65244;SDS011;51846;48.692;2.382;2022-10-31T19:24:41;13.88;;;5.88;;
65244;SDS011;51846;48.692;2.382;2022-10-31T19:27:08;12.55;;;4.95;;
65244;SDS011;51846;48.692;2.382;2022-10-31T19:29:33;11.20;;;4.80;;
65244;SDS011;51846;48.692;2.382;2022-10-31T19:31:59;15.23;;;5.57;;
65244;SDS011;51846;48.692;2.382;2022-10-31T19:34:24;12.80;;;4.72;;
